MUE weather

Waimea Kohala Airport
Kamuela, Hawaii, United States

Public forecast

Using degrees Fahrenheit for public forecast. Weather courtesy of forecast.io.

Closest aviation weather report (METAR) to Waimea Kohala Airport

Closest report is Bradshaw Army Airfield, 15.8 nm (29.4 km) SSE. Retrieved 2020/04/05 00:58 UTC (12 minutes ago):

PHSF 050058Z AUTO 28011KT 9SM FEW016 19/13 A3024 RMK AO2 SLP130 T01920127

Closest aviation forecast (TAF) to Waimea Kohala Airport

Closest forecast is Ellison Onizuka Kona International At Keahole Airport, 26.5 nm (49.1 km) SW. Retrieved 2020-04-05 00:30 UTC (40 minutes ago):

TAF PHKO 042327Z 0500/0524 22011KT P6SM SCT050 FM050400 34007KT P6SM BKN050 FM050800 VRB05KT P6SM FEW025 SCT050 FM052100 23009KT P6SM SCT025 SCT050